sensor_id;sensor_type;location;lat;lon;timestamp;pressure;altitude;pressure_sealevel;temperature;humidity
62103;BME280;48077;48.104;11.702;2023-01-31T00:00:38;96150.31;;;0.55;90.92
62103;BME280;48077;48.104;11.702;2023-01-31T00:03:01;96145.00;;;0.47;91.04
62103;BME280;48077;48.104;11.702;2023-01-31T00:05:25;96144.38;;;0.53;91.20
62103;BME280;48077;48.104;11.702;2023-01-31T00:07:48;96142.59;;;0.54;91.39
62103;BME280;48077;48.104;11.702;2023-01-31T00:10:12;96125.66;;;0.48;91.58
62103;BME280;48077;48.104;11.702;2023-01-31T00:12:35;96138.19;;;0.54;91.46
62103;BME280;48077;48.104;11.702;2023-01-31T00:14:59;96142.91;;;0.51;91.98
62103;BME280;48077;48.104;11.702;2023-01-31T00:17:23;96128.13;;;0.50;91.21
62103;BME280;48077;48.104;11.702;2023-01-31T00:19:46;96133.41;;;0.58;91.53
62103;BME280;48077;48.104;11.702;2023-01-31T00:22:09;96112.31;;;0.42;91.79
62103;BME280;48077;48.104;11.702;2023-01-31T00:24:33;96127.97;;;0.51;91.49
62103;BME280;48077;48.104;11.702;2023-01-31T00:26:56;96120.25;;;0.50;91.92
62103;BME280;48077;48.104;11.702;2023-01-31T00:29:19;96133.75;;;0.55;91.72
62103;BME280;48077;48.104;11.702;2023-01-31T00:31:43;96150.84;;;0.59;91.13
62103;BME280;48077;48.104;11.702;2023-01-31T00:34:06;96118.09;;;0.45;91.43
62103;BME280;48077;48.104;11.702;2023-01-31T00:36:32;96130.75;;;0.50;91.36
62103;BME280;48077;48.104;11.702;2023-01-31T00:38:57;96141.28;;;0.58;91.67
62103;BME280;48077;48.104;11.702;2023-01-31T00:41:23;96137.84;;;0.57;91.63
62103;BME280;48077;48.104;11.702;2023-01-31T00:43:47;96143.44;;;0.54;91.76
62103;BME280;48077;48.104;11.702;2023-01-31T00:46:11;96137.81;;;0.49;91.84
62103;BME280;48077;48.104;11.702;2023-01-31T00:48:34;96138.63;;;0.50;91.70
62103;BME280;48077;48.104;11.702;2023-01-31T00:50:58;96121.66;;;0.36;92.31
62103;BME280;48077;48.104;11.702;2023-01-31T00:53:21;96129.41;;;0.46;92.47
62103;BME280;48077;48.104;11.702;2023-01-31T00:55:52;96119.09;;;0.44;92.25
62103;BME280;48077;48.104;11.702;2023-01-31T00:58:16;96115.59;;;0.44;92.27
62103;BME280;48077;48.104;11.702;2023-01-31T01:00:39;96121.03;;;0.42;92.45
62103;BME280;48077;48.104;11.702;2023-01-31T01:03:02;96129.88;;;0.41;92.59
62103;BME280;48077;48.104;11.702;2023-01-31T01:05:26;96129.34;;;0.37;92.68
62103;BME280;48077;48.104;11.702;2023-01-31T01:07:49;96121.78;;;0.34;92.78
62103;BME280;48077;48.104;11.702;2023-01-31T01:10:12;96120.66;;;0.37;92.88
62103;BME280;48077;48.104;11.702;2023-01-31T01:12:36;96122.31;;;0.38;93.19
62103;BME280;48077;48.104;11.702;2023-01-31T01:14:59;96135.44;;;0.38;93.23
62103;BME280;48077;48.104;11.702;2023-01-31T01:17:22;96137.22;;;0.37;93.02
62103;BME280;48077;48.104;11.702;2023-01-31T01:19:46;96140.84;;;0.36;93.52
62103;BME280;48077;48.104;11.702;2023-01-31T01:22:10;96138.34;;;0.35;93.69
62103;BME280;48077;48.104;11.702;2023-01-31T01:24:38;96140.97;;;0.35;93.68
62103;BME280;48077;48.104;11.702;2023-01-31T01:27:01;96128.31;;;0.30;93.34
62103;BME280;48077;48.104;11.702;2023-01-31T01:29:27;96133.72;;;0.29;93.67
62103;BME280;48077;48.104;11.702;2023-01-31T01:31:50;96143.94;;;0.32;93.96
62103;BME280;48077;48.104;11.702;2023-01-31T01:34:15;96155.38;;;0.31;93.86
62103;BME280;48077;48.104;11.702;2023-01-31T01:36:38;96142.06;;;0.24;93.94
62103;BME280;48077;48.104;11.702;2023-01-31T01:39:04;96141.59;;;0.29;94.26
62103;BME280;48077;48.104;11.702;2023-01-31T01:41:29;96139.63;;;0.31;94.35
62103;BME280;48077;48.104;11.702;2023-01-31T01:43:55;96157.19;;;0.30;94.26
62103;BME280;48077;48.104;11.702;2023-01-31T01:46:41;96155.69;;;0.28;94.33
62103;BME280;48077;48.104;11.702;2023-01-31T01:49:33;96150.59;;;0.26;94.19
62103;BME280;48077;48.104;11.702;2023-01-31T01:52:01;96148.50;;;0.30;93.99
62103;BME280;48077;48.104;11.702;2023-01-31T01:54:30;96137.78;;;0.23;94.14
62103;BME280;48077;48.104;11.702;2023-01-31T01:57:00;96132.47;;;0.15;94.43
62103;BME280;48077;48.104;11.702;2023-01-31T01:59:28;96144.22;;;0.29;93.86
62103;BME280;48077;48.104;11.702;2023-01-31T02:01:54;96158.19;;;0.29;93.59
62103;BME280;48077;48.104;11.702;2023-01-31T02:04:22;96155.31;;;0.23;93.29
62103;BME280;48077;48.104;11.702;2023-01-31T02:06:47;96158.47;;;0.26;93.61
62103;BME280;48077;48.104;11.702;2023-01-31T02:09:19;96151.25;;;0.28;93.11
62103;BME280;48077;48.104;11.702;2023-01-31T02:11:44;96159.47;;;0.25;93.19
62103;BME280;48077;48.104;11.702;2023-01-31T02:14:09;96168.28;;;0.24;93.46
62103;BME280;48077;48.104;11.702;2023-01-31T02:16:33;96172.06;;;0.22;93.35
62103;BME280;48077;48.104;11.702;2023-01-31T02:18:56;96177.97;;;0.24;93.36
62103;BME280;48077;48.104;11.702;2023-01-31T02:36:00;96172.06;;;0.22;93.24
62103;BME280;48077;48.104;11.702;2023-01-31T02:38:51;96177.28;;;0.22;93.17
62103;BME280;48077;48.104;11.702;2023-01-31T02:47:01;96174.81;;;0.20;93.14
62103;BME280;48077;48.104;11.702;2023-01-31T02:49:38;96184.50;;;0.19;93.57
62103;BME280;48077;48.104;11.702;2023-01-31T02:52:15;96181.88;;;0.19;93.35
62103;BME280;48077;48.104;11.702;2023-01-31T02:54:48;96176.56;;;0.11;93.55
62103;BME280;48077;48.104;11.702;2023-01-31T02:57:34;96167.53;;;0.14;93.42
62103;BME280;48077;48.104;11.702;2023-01-31T02:59:59;96176.91;;;0.16;93.27
62103;BME280;48077;48.104;11.702;2023-01-31T03:02:23;96177.91;;;0.15;93.32
62103;BME280;48077;48.104;11.702;2023-01-31T03:04:47;96185.91;;;0.14;93.26
62103;BME280;48077;48.104;11.702;2023-01-31T03:07:19;96191.00;;;0.15;93.13
62103;BME280;48077;48.104;11.702;2023-01-31T03:13:21;96192.28;;;0.11;93.71
62103;BME280;48077;48.104;11.702;2023-01-31T03:15:54;96182.94;;;0.09;94.00
62103;BME280;48077;48.104;11.702;2023-01-31T03:18:51;96176.03;;;0.08;93.46
62103;BME280;48077;48.104;11.702;2023-01-31T03:21:26;96180.44;;;0.07;93.32
62103;BME280;48077;48.104;11.702;2023-01-31T03:23:52;96187.19;;;0.10;93.09
62103;BME280;48077;48.104;11.702;2023-01-31T03:26:18;96173.31;;;-0.01;93.27
62103;BME280;48077;48.104;11.702;2023-01-31T03:28:43;96197.81;;;0.08;92.65
62103;BME280;48077;48.104;11.702;2023-01-31T03:31:13;96197.00;;;0.08;92.34
62103;BME280;48077;48.104;11.702;2023-01-31T03:33:41;96194.69;;;0.05;92.09
62103;BME280;48077;48.104;11.702;2023-01-31T03:44:18;96207.34;;;0.09;92.24
62103;BME280;48077;48.104;11.702;2023-01-31T03:46:45;96214.56;;;0.07;92.04
62103;BME280;48077;48.104;11.702;2023-01-31T03:49:13;96196.94;;;-0.01;92.55
62103;BME280;48077;48.104;11.702;2023-01-31T03:51:42;96206.00;;;0.05;92.42
62103;BME280;48077;48.104;11.702;2023-01-31T03:54:12;96220.25;;;0.03;92.51
62103;BME280;48077;48.104;11.702;2023-01-31T03:56:45;96233.38;;;0.03;92.50
62103;BME280;48077;48.104;11.702;2023-01-31T03:59:16;96231.56;;;0.03;92.59
62103;BME280;48077;48.104;11.702;2023-01-31T04:01:45;96227.59;;;-0.01;92.83
62103;BME280;48077;48.104;11.702;2023-01-31T04:04:20;96217.00;;;-0.09;92.95
62103;BME280;48077;48.104;11.702;2023-01-31T04:06:46;96209.19;;;-0.19;93.25
62103;BME280;48077;48.104;11.702;2023-01-31T04:09:09;96220.22;;;-0.15;93.28
62103;BME280;48077;48.104;11.702;2023-01-31T04:11:38;96225.19;;;-0.12;93.63
62103;BME280;48077;48.104;11.702;2023-01-31T04:14:01;96214.63;;;-0.21;92.92
62103;BME280;48077;48.104;11.702;2023-01-31T04:16:24;96242.03;;;-0.15;93.43
62103;BME280;48077;48.104;11.702;2023-01-31T04:18:48;96239.16;;;-0.22;93.59
62103;BME280;48077;48.104;11.702;2023-01-31T04:21:13;96237.22;;;-0.19;93.47
62103;BME280;48077;48.104;11.702;2023-01-31T04:23:37;96248.03;;;-0.23;93.29
62103;BME280;48077;48.104;11.702;2023-01-31T04:26:00;96236.84;;;-0.25;93.42
62103;BME280;48077;48.104;11.702;2023-01-31T04:28:24;96240.28;;;-0.24;93.51
62103;BME280;48077;48.104;11.702;2023-01-31T04:30:54;96247.47;;;-0.26;93.60
62103;BME280;48077;48.104;11.702;2023-01-31T04:33:17;96256.59;;;-0.30;93.74
62103;BME280;48077;48.104;11.702;2023-01-31T04:35:41;96256.75;;;-0.32;93.87
62103;BME280;48077;48.104;11.702;2023-01-31T04:38:04;96249.56;;;-0.30;93.72
62103;BME280;48077;48.104;11.702;2023-01-31T04:40:27;96251.50;;;-0.32;92.94
62103;BME280;48077;48.104;11.702;2023-01-31T04:42:51;96259.91;;;-0.28;93.25
62103;BME280;48077;48.104;11.702;2023-01-31T04:45:14;96264.47;;;-0.30;93.44
62103;BME280;48077;48.104;11.702;2023-01-31T04:47:38;96242.44;;;-0.37;93.33
62103;BME280;48077;48.104;11.702;2023-01-31T04:50:01;96250.00;;;-0.34;93.75
62103;BME280;48077;48.104;11.702;2023-01-31T04:52:25;96274.97;;;-0.30;93.28
62103;BME280;48077;48.104;11.702;2023-01-31T04:54:48;96264.09;;;-0.35;93.33
62103;BME280;48077;48.104;11.702;2023-01-31T04:57:11;96277.22;;;-0.35;93.53
62103;BME280;48077;48.104;11.702;2023-01-31T04:59:35;96278.84;;;-0.34;93.74
62103;BME280;48077;48.104;11.702;2023-01-31T05:01:58;96286.56;;;-0.33;93.29
62103;BME280;48077;48.104;11.702;2023-01-31T05:04:21;96299.00;;;-0.35;93.63
62103;BME280;48077;48.104;11.702;2023-01-31T05:06:45;96289.31;;;-0.34;93.30
62103;BME280;48077;48.104;11.702;2023-01-31T05:09:09;96282.84;;;-0.40;93.31
62103;BME280;48077;48.104;11.702;2023-01-31T05:11:33;96300.94;;;-0.37;93.39
62103;BME280;48077;48.104;11.702;2023-01-31T05:13:56;96302.56;;;-0.36;93.10
62103;BME280;48077;48.104;11.702;2023-01-31T05:16:20;96302.44;;;-0.34;93.18
62103;BME280;48077;48.104;11.702;2023-01-31T05:18:43;96296.38;;;-0.35;93.30
62103;BME280;48077;48.104;11.702;2023-01-31T05:21:07;96296.25;;;-0.33;93.18
62103;BME280;48077;48.104;11.702;2023-01-31T05:23:31;96306.03;;;-0.35;92.87
62103;BME280;48077;48.104;11.702;2023-01-31T05:25:54;96314.59;;;-0.33;92.63
62103;BME280;48077;48.104;11.702;2023-01-31T05:28:17;96302.19;;;-0.41;92.64
62103;BME280;48077;48.104;11.702;2023-01-31T05:30:41;96311.13;;;-0.34;92.84
62103;BME280;48077;48.104;11.702;2023-01-31T05:33:04;96318.16;;;-0.34;93.17
62103;BME280;48077;48.104;11.702;2023-01-31T05:35:27;96300.41;;;-0.50;92.62
62103;BME280;48077;48.104;11.702;2023-01-31T05:37:54;96315.00;;;-0.38;92.94
62103;BME280;48077;48.104;11.702;2023-01-31T05:40:18;96305.09;;;-0.44;92.53
62103;BME280;48077;48.104;11.702;2023-01-31T05:42:41;96310.44;;;-0.36;92.89
62103;BME280;48077;48.104;11.702;2023-01-31T05:45:06;96313.91;;;-0.35;92.94
62103;BME280;48077;48.104;11.702;2023-01-31T05:47:30;96307.72;;;-0.44;93.31
62103;BME280;48077;48.104;11.702;2023-01-31T05:49:53;96325.66;;;-0.39;93.13
62103;BME280;48077;48.104;11.702;2023-01-31T05:52:16;96327.41;;;-0.40;93.02
62103;BME280;48077;48.104;11.702;2023-01-31T05:54:40;96326.59;;;-0.41;92.95
62103;BME280;48077;48.104;11.702;2023-01-31T05:57:03;96306.91;;;-0.54;93.33
62103;BME280;48077;48.104;11.702;2023-01-31T05:59:26;96321.34;;;-0.41;93.28
62103;BME280;48077;48.104;11.702;2023-01-31T06:01:52;96317.91;;;-0.41;92.55
62103;BME280;48077;48.104;11.702;2023-01-31T06:04:16;96324.13;;;-0.42;92.80
62103;BME280;48077;48.104;11.702;2023-01-31T06:06:39;96330.34;;;-0.43;92.79
62103;BME280;48077;48.104;11.702;2023-01-31T06:09:03;96324.69;;;-0.48;93.00
62103;BME280;48077;48.104;11.702;2023-01-31T06:11:26;96321.56;;;-0.52;93.32
62103;BME280;48077;48.104;11.702;2023-01-31T06:13:50;96321.69;;;-0.53;93.47
62103;BME280;48077;48.104;11.702;2023-01-31T06:16:13;96320.88;;;-0.54;93.40
62103;BME280;48077;48.104;11.702;2023-01-31T06:18:36;96319.75;;;-0.51;92.89
62103;BME280;48077;48.104;11.702;2023-01-31T06:21:00;96317.56;;;-0.56;93.30
62103;BME280;48077;48.104;11.702;2023-01-31T06:23:23;96321.00;;;-0.55;93.52
62103;BME280;48077;48.104;11.702;2023-01-31T06:25:51;96315.63;;;-0.54;93.16
62103;BME280;48077;48.104;11.702;2023-01-31T06:28:14;96303.91;;;-0.59;93.16
62103;BME280;48077;48.104;11.702;2023-01-31T06:30:38;96310.41;;;-0.64;93.41
62103;BME280;48077;48.104;11.702;2023-01-31T06:33:01;96309.69;;;-0.56;93.43
62103;BME280;48077;48.104;11.702;2023-01-31T06:35:24;96308.16;;;-0.58;93.12
62103;BME280;48077;48.104;11.702;2023-01-31T06:37:48;96308.59;;;-0.63;93.17
62103;BME280;48077;48.104;11.702;2023-01-31T06:40:11;96322.81;;;-0.56;92.85
62103;BME280;48077;48.104;11.702;2023-01-31T06:42:34;96330.50;;;-0.54;92.52
62103;BME280;48077;48.104;11.702;2023-01-31T06:44:58;96325.13;;;-0.53;93.01
62103;BME280;48077;48.104;11.702;2023-01-31T06:47:21;96329.53;;;-0.53;92.41
62103;BME280;48077;48.104;11.702;2023-01-31T06:49:44;96338.66;;;-0.48;91.79
62103;BME280;48077;48.104;11.702;2023-01-31T06:52:08;96318.25;;;-0.54;92.31
62103;BME280;48077;48.104;11.702;2023-01-31T06:54:31;96319.78;;;-0.61;92.23
62103;BME280;48077;48.104;11.702;2023-01-31T06:56:54;96324.31;;;-0.53;91.40
62103;BME280;48077;48.104;11.702;2023-01-31T06:59:18;96329.13;;;-0.49;91.41
62103;BME280;48077;48.104;11.702;2023-01-31T07:01:41;96332.03;;;-0.52;90.79
62103;BME280;48077;48.104;11.702;2023-01-31T07:04:04;96320.59;;;-0.61;91.22
62103;BME280;48077;48.104;11.702;2023-01-31T07:06:28;96347.59;;;-0.50;91.01
62103;BME280;48077;48.104;11.702;2023-01-31T07:08:51;96360.97;;;-0.44;90.90
62103;BME280;48077;48.104;11.702;2023-01-31T07:11:15;96348.28;;;-0.48;90.69
62103;BME280;48077;48.104;11.702;2023-01-31T07:13:38;96357.38;;;-0.43;90.69
62103;BME280;48077;48.104;11.702;2023-01-31T07:16:01;96353.78;;;-0.42;90.51
62103;BME280;48077;48.104;11.702;2023-01-31T07:18:25;96352.00;;;-0.41;89.91
62103;BME280;48077;48.104;11.702;2023-01-31T07:20:49;96351.69;;;-0.38;90.12
62103;BME280;48077;48.104;11.702;2023-01-31T07:23:12;96346.06;;;-0.43;89.77
62103;BME280;48077;48.104;11.702;2023-01-31T07:25:36;96348.38;;;-0.40;89.70
62103;BME280;48077;48.104;11.702;2023-01-31T07:28:00;96348.38;;;-0.40;89.72
62103;BME280;48077;48.104;11.702;2023-01-31T07:30:24;96350.44;;;-0.34;89.56
62103;BME280;48077;48.104;11.702;2023-01-31T07:32:48;96338.22;;;-0.43;88.94
62103;BME280;48077;48.104;11.702;2023-01-31T07:35:11;96352.91;;;-0.32;89.21
62103;BME280;48077;48.104;11.702;2023-01-31T07:37:34;96344.38;;;-0.34;89.97
62103;BME280;48077;48.104;11.702;2023-01-31T07:39:58;96345.19;;;-0.34;89.00
62103;BME280;48077;48.104;11.702;2023-01-31T07:42:21;96352.34;;;-0.26;88.53
62103;BME280;48077;48.104;11.702;2023-01-31T07:44:45;96349.28;;;-0.22;88.60
62103;BME280;48077;48.104;11.702;2023-01-31T07:47:08;96350.38;;;-0.14;88.26
62103;BME280;48077;48.104;11.702;2023-01-31T07:49:31;96338.34;;;-0.17;87.76
62103;BME280;48077;48.104;11.702;2023-01-31T07:51:55;96353.25;;;-0.08;87.92
62103;BME280;48077;48.104;11.702;2023-01-31T07:54:18;96337.66;;;-0.09;87.24
62103;BME280;48077;48.104;11.702;2023-01-31T07:56:41;96353.16;;;0.02;87.52
62103;BME280;48077;48.104;11.702;2023-01-31T07:59:05;96359.94;;;0.05;86.88
62103;BME280;48077;48.104;11.702;2023-01-31T08:01:28;96355.88;;;0.10;86.35
62103;BME280;48077;48.104;11.702;2023-01-31T08:04:13;96352.59;;;0.08;86.55
62103;BME280;48077;48.104;11.702;2023-01-31T08:06:38;96359.19;;;0.12;86.46
62103;BME280;48077;48.104;11.702;2023-01-31T08:09:02;96359.50;;;0.09;86.07
62103;BME280;48077;48.104;11.702;2023-01-31T08:11:25;96334.31;;;-0.02;86.35
62103;BME280;48077;48.104;11.702;2023-01-31T08:13:49;96349.22;;;-0.02;86.20
62103;BME280;48077;48.104;11.702;2023-01-31T08:16:13;96334.06;;;-0.08;86.20
62103;BME280;48077;48.104;11.702;2023-01-31T08:18:37;96360.09;;;0.03;85.36
62103;BME280;48077;48.104;11.702;2023-01-31T08:21:00;96358.41;;;0.02;85.15
62103;BME280;48077;48.104;11.702;2023-01-31T08:23:24;96343.56;;;-0.07;84.75
62103;BME280;48077;48.104;11.702;2023-01-31T08:25:47;96356.78;;;0.01;85.38
62103;BME280;48077;48.104;11.702;2023-01-31T08:28:10;96357.78;;;0.00;85.32
62103;BME280;48077;48.104;11.702;2023-01-31T08:30:38;96368.91;;;0.02;84.72
62103;BME280;48077;48.104;11.702;2023-01-31T08:33:02;96369.53;;;-0.04;85.03
62103;BME280;48077;48.104;11.702;2023-01-31T08:35:26;96372.41;;;-0.07;85.20
62103;BME280;48077;48.104;11.702;2023-01-31T08:37:50;96372.72;;;-0.10;85.32
62103;BME280;48077;48.104;11.702;2023-01-31T08:40:13;96364.31;;;-0.14;85.60
62103;BME280;48077;48.104;11.702;2023-01-31T08:42:36;96375.19;;;-0.09;85.67
62103;BME280;48077;48.104;11.702;2023-01-31T08:45:00;96373.09;;;-0.05;84.86
62103;BME280;48077;48.104;11.702;2023-01-31T08:47:23;96359.16;;;-0.06;85.61
62103;BME280;48077;48.104;11.702;2023-01-31T08:49:46;96363.00;;;0.00;85.59
62103;BME280;48077;48.104;11.702;2023-01-31T08:52:10;96357.16;;;0.06;84.49
62103;BME280;48077;48.104;11.702;2023-01-31T08:54:33;96355.31;;;0.16;84.40
62103;BME280;48077;48.104;11.702;2023-01-31T08:56:57;96352.78;;;0.25;83.50
62103;BME280;48077;48.104;11.702;2023-01-31T08:59:20;96357.22;;;0.24;83.43
62103;BME280;48077;48.104;11.702;2023-01-31T09:01:43;96352.88;;;0.33;82.83
62103;BME280;48077;48.104;11.702;2023-01-31T09:04:08;96365.81;;;0.44;83.00
62103;BME280;48077;48.104;11.702;2023-01-31T09:06:32;96340.16;;;0.38;81.19
62103;BME280;48077;48.104;11.702;2023-01-31T09:08:56;96357.41;;;0.58;81.78
62103;BME280;48077;48.104;11.702;2023-01-31T09:11:20;96340.59;;;0.51;80.95
62103;BME280;48077;48.104;11.702;2023-01-31T09:13:45;96339.25;;;0.65;80.31
62103;BME280;48077;48.104;11.702;2023-01-31T09:16:11;96348.03;;;0.74;79.17
62103;BME280;48077;48.104;11.702;2023-01-31T09:18:36;96357.72;;;0.73;79.48
62103;BME280;48077;48.104;11.702;2023-01-31T09:21:11;96336.72;;;0.73;78.98
62103;BME280;48077;48.104;11.702;2023-01-31T09:23:34;96347.78;;;0.85;77.95
62103;BME280;48077;48.104;11.702;2023-01-31T09:25:58;96352.16;;;0.94;77.71
62103;BME280;48077;48.104;11.702;2023-01-31T09:28:22;96351.91;;;1.06;76.47
62103;BME280;48077;48.104;11.702;2023-01-31T09:30:45;96354.97;;;1.19;77.23
62103;BME280;48077;48.104;11.702;2023-01-31T09:33:09;96358.94;;;1.23;77.00
62103;BME280;48077;48.104;11.702;2023-01-31T09:35:32;96358.09;;;1.23;76.57
62103;BME280;48077;48.104;11.702;2023-01-31T09:37:57;96363.53;;;1.21;75.36
62103;BME280;48077;48.104;11.702;2023-01-31T09:40:21;96368.31;;;1.26;75.64
62103;BME280;48077;48.104;11.702;2023-01-31T09:42:46;96360.97;;;1.29;75.19
62103;BME280;48077;48.104;11.702;2023-01-31T09:45:14;96361.88;;;1.20;74.80
62103;BME280;48077;48.104;11.702;2023-01-31T09:47:42;96372.38;;;1.20;74.73
62103;BME280;48077;48.104;11.702;2023-01-31T09:52:33;96370.69;;;1.11;75.71
62103;BME280;48077;48.104;11.702;2023-01-31T09:54:57;96366.53;;;1.08;75.29
62103;BME280;48077;48.104;11.702;2023-01-31T10:00:08;96391.31;;;1.06;75.35
62103;BME280;48077;48.104;11.702;2023-01-31T10:02:51;96389.97;;;1.01;75.30
62103;BME280;48077;48.104;11.702;2023-01-31T10:08:11;96371.84;;;1.16;74.56
62103;BME280;48077;48.104;11.702;2023-01-31T10:10:41;96372.75;;;1.25;73.87
62103;BME280;48077;48.104;11.702;2023-01-31T10:13:22;96371.84;;;1.60;73.76
62103;BME280;48077;48.104;11.702;2023-01-31T10:15:57;96357.59;;;1.71;71.37
62103;BME280;48077;48.104;11.702;2023-01-31T10:18:25;96361.66;;;1.92;70.54
62103;BME280;48077;48.104;11.702;2023-01-31T10:21:02;96352.66;;;2.02;69.67
62103;BME280;48077;48.104;11.702;2023-01-31T10:23:43;96349.88;;;2.12;67.94
62103;BME280;48077;48.104;11.702;2023-01-31T10:26:30;96343.31;;;2.16;69.10
62103;BME280;48077;48.104;11.702;2023-01-31T10:29:00;96326.53;;;2.09;69.17
62103;BME280;48077;48.104;11.702;2023-01-31T10:31:42;96307.81;;;1.78;68.34
62103;BME280;48077;48.104;11.702;2023-01-31T10:34:19;96312.09;;;1.79;68.42
62103;BME280;48077;48.104;11.702;2023-01-31T10:36:50;96323.66;;;1.86;68.81
62103;BME280;48077;48.104;11.702;2023-01-31T10:39:28;96306.53;;;1.82;68.66
62103;BME280;48077;48.104;11.702;2023-01-31T10:42:20;96326.50;;;2.01;68.79
62103;BME280;48077;48.104;11.702;2023-01-31T10:44:54;96330.75;;;2.02;69.73
62103;BME280;48077;48.104;11.702;2023-01-31T10:47:21;96323.34;;;1.97;69.77
62103;BME280;48077;48.104;11.702;2023-01-31T10:49:48;96325.66;;;1.92;69.20
62103;BME280;48077;48.104;11.702;2023-01-31T10:57:23;96329.84;;;1.77;70.13
62103;BME280;48077;48.104;11.702;2023-01-31T10:59:47;96303.34;;;1.70;71.07
62103;BME280;48077;48.104;11.702;2023-01-31T11:02:23;96313.56;;;1.73;70.67
62103;BME280;48077;48.104;11.702;2023-01-31T11:04:49;96319.44;;;1.67;71.38
62103;BME280;48077;48.104;11.702;2023-01-31T11:07:13;96316.44;;;1.62;71.78
62103;BME280;48077;48.104;11.702;2023-01-31T11:09:42;96307.75;;;1.61;71.73
62103;BME280;48077;48.104;11.702;2023-01-31T11:12:06;96301.97;;;1.58;71.37
62103;BME280;48077;48.104;11.702;2023-01-31T11:14:30;96299.03;;;1.61;72.21
62103;BME280;48077;48.104;11.702;2023-01-31T11:17:11;96293.63;;;1.63;72.07
62103;BME280;48077;48.104;11.702;2023-01-31T11:19:45;96284.69;;;1.55;72.15
62103;BME280;48077;48.104;11.702;2023-01-31T11:22:30;96276.50;;;1.58;72.49
62103;BME280;48077;48.104;11.702;2023-01-31T11:24:56;96289.34;;;1.61;72.82
62103;BME280;48077;48.104;11.702;2023-01-31T11:27:46;96277.63;;;1.56;72.87
62103;BME280;48077;48.104;11.702;2023-01-31T11:30:20;96256.72;;;1.46;73.02
62103;BME280;48077;48.104;11.702;2023-01-31T11:32:44;96256.78;;;1.54;73.63
62103;BME280;48077;48.104;11.702;2023-01-31T11:37:48;96245.22;;;1.47;73.34
62103;BME280;48077;48.104;11.702;2023-01-31T11:42:53;96233.53;;;1.41;74.51
62103;BME280;48077;48.104;11.702;2023-01-31T11:45:19;96237.03;;;1.50;74.37
62103;BME280;48077;48.104;11.702;2023-01-31T11:47:54;96235.19;;;1.42;74.29
62103;BME280;48077;48.104;11.702;2023-01-31T11:50:20;96228.47;;;1.48;74.78
62103;BME280;48077;48.104;11.702;2023-01-31T11:52:43;96233.41;;;1.51;74.89
62103;BME280;48077;48.104;11.702;2023-01-31T11:55:07;96220.59;;;1.48;73.68
62103;BME280;48077;48.104;11.702;2023-01-31T11:57:33;96203.16;;;1.47;74.12
62103;BME280;48077;48.104;11.702;2023-01-31T11:59:59;96194.75;;;1.44;74.57
62103;BME280;48077;48.104;11.702;2023-01-31T12:02:38;96208.81;;;1.60;74.08
62103;BME280;48077;48.104;11.702;2023-01-31T12:05:14;96196.13;;;1.56;74.10
62103;BME280;48077;48.104;11.702;2023-01-31T12:07:48;96198.78;;;1.64;74.11
62103;BME280;48077;48.104;11.702;2023-01-31T12:10:41;96195.50;;;1.62;73.79
62103;BME280;48077;48.104;11.702;2023-01-31T12:13:13;96190.75;;;1.66;73.64
62103;BME280;48077;48.104;11.702;2023-01-31T12:15:45;96178.22;;;1.59;73.29
62103;BME280;48077;48.104;11.702;2023-01-31T12:18:09;96182.38;;;1.70;73.46
62103;BME280;48077;48.104;11.702;2023-01-31T12:20:43;96172.50;;;1.72;72.94
62103;BME280;48077;48.104;11.702;2023-01-31T12:26:13;96153.81;;;1.84;72.39
62103;BME280;48077;48.104;11.702;2023-01-31T12:32:03;96162.97;;;1.71;73.37
62103;BME280;48077;48.104;11.702;2023-01-31T12:37:28;96174.66;;;1.77;72.81
62103;BME280;48077;48.104;11.702;2023-01-31T12:43:00;96151.50;;;1.89;72.57
62103;BME280;48077;48.104;11.702;2023-01-31T12:45:28;96164.66;;;1.97;73.15
62103;BME280;48077;48.104;11.702;2023-01-31T12:50:47;96158.25;;;2.08;72.54
62103;BME280;48077;48.104;11.702;2023-01-31T12:53:31;96162.56;;;2.09;72.62
62103;BME280;48077;48.104;11.702;2023-01-31T12:56:09;96158.75;;;1.95;72.31
62103;BME280;48077;48.104;11.702;2023-01-31T13:01:47;96167.28;;;1.89;72.48
62103;BME280;48077;48.104;11.702;2023-01-31T13:04:41;96154.47;;;1.86;73.50
62103;BME280;48077;48.104;11.702;2023-01-31T13:07:47;96154.13;;;1.89;73.02
62103;BME280;48077;48.104;11.702;2023-01-31T13:10:26;96148.72;;;1.98;73.07
62103;BME280;48077;48.104;11.702;2023-01-31T13:12:51;96151.69;;;2.03;72.14
62103;BME280;48077;48.104;11.702;2023-01-31T13:15:25;96146.25;;;2.13;72.27
62103;BME280;48077;48.104;11.702;2023-01-31T13:17:54;96142.31;;;2.17;71.83
62103;BME280;48077;48.104;11.702;2023-01-31T13:20:32;96121.09;;;2.19;71.55
62103;BME280;48077;48.104;11.702;2023-01-31T13:23:04;96121.25;;;2.26;72.50
62103;BME280;48077;48.104;11.702;2023-01-31T13:28:05;96121.56;;;2.22;70.74
62103;BME280;48077;48.104;11.702;2023-01-31T13:30:43;96115.84;;;2.19;71.58
62103;BME280;48077;48.104;11.702;2023-01-31T13:35:46;96104.47;;;2.27;71.89
62103;BME280;48077;48.104;11.702;2023-01-31T13:38:16;96091.66;;;2.32;71.47
62103;BME280;48077;48.104;11.702;2023-01-31T13:40:46;96096.72;;;2.41;70.42
62103;BME280;48077;48.104;11.702;2023-01-31T13:43:12;96080.91;;;2.41;70.36
62103;BME280;48077;48.104;11.702;2023-01-31T13:45:41;96067.44;;;2.36;70.23
62103;BME280;48077;48.104;11.702;2023-01-31T13:48:09;96081.91;;;2.40;69.62
62103;BME280;48077;48.104;11.702;2023-01-31T13:53:26;96077.03;;;2.21;69.78
62103;BME280;48077;48.104;11.702;2023-01-31T13:55:51;96080.97;;;2.25;70.20
62103;BME280;48077;48.104;11.702;2023-01-31T14:00:46;96082.09;;;2.14;70.74
62103;BME280;48077;48.104;11.702;2023-01-31T14:03:19;96077.84;;;2.05;71.54
62103;BME280;48077;48.104;11.702;2023-01-31T14:08:37;96088.53;;;2.03;72.20
62103;BME280;48077;48.104;11.702;2023-01-31T14:11:02;96093.47;;;1.98;72.48
62103;BME280;48077;48.104;11.702;2023-01-31T14:13:48;96090.19;;;1.88;72.63
62103;BME280;48077;48.104;11.702;2023-01-31T14:18:53;96097.41;;;1.86;73.09
62103;BME280;48077;48.104;11.702;2023-01-31T14:23:52;96091.47;;;1.76;73.79